Terminal Aerodrome Forecast
Issued by NWS Central Illinois

Home | Current Version | Previous Version | Text Only | Print | Product List | Glossary On
Versions: 1 2 3 4 5 6 7 8 9 10 11 12 13 14 15 16
000
FTUS43 KILX 230500
TAFSPI
TAF
KSPI 230520Z 2306/2406 24004KT P6SM VCTS BKN035CB
     FM230800 27004KT 5SM BR SCT025
      TEMPO 2308/2310 BKN025
     FM231000 32006KT P6SM SCT250
     FM231400 02010KT P6SM SCT060
     FM240200 05005KT P6SM SKC=

USA.gov is the U.S. government's official web portal to all federal, state and local government web resources and services.